createdAt,value
2018-12-08T00:01:02.057Z,83.20
2018-12-08T00:03:31.250Z,83.40
2018-12-08T00:06:03.620Z,83.40
2018-12-08T00:08:38.710Z,82.90
2018-12-08T00:14:05.239Z,82.90
2018-12-08T00:16:40.267Z,82.40
2018-12-08T00:19:08.425Z,83.40
2018-12-08T00:21:36.540Z,83.20
2018-12-08T00:24:04.647Z,84.10
2018-12-08T00:26:32.761Z,83.50
2018-12-08T00:29:00.884Z,82.90
2018-12-08T00:31:34.765Z,82.50
2018-12-08T00:34:02.924Z,82.00
2018-12-08T00:36:31.067Z,82.20
2018-12-08T00:39:00.530Z,82.40
2018-12-08T00:41:36.595Z,81.50
2018-12-08T00:44:04.787Z,82.40
2018-12-08T00:49:32.755Z,83.60
2018-12-08T00:52:00.845Z,84.40
2018-12-08T00:54:28.923Z,85.20
2018-12-08T00:56:57.034Z,85.20
2018-12-08T00:59:27.211Z,85.80
2018-12-08T01:01:55.295Z,86.70
2018-12-08T01:04:23.364Z,86.60
2018-12-08T01:06:52.473Z,86.80
2018-12-08T01:09:20.566Z,86.90
2018-12-08T01:11:48.707Z,87.20
2018-12-08T01:14:16.774Z,87.30
2018-12-08T01:16:45.284Z,86.80
2018-12-08T01:19:13.311Z,87.00
2018-12-08T01:21:41.413Z,87.50
2018-12-08T01:24:09.490Z,86.90
2018-12-08T01:26:37.554Z,87.20
2018-12-08T01:29:06.468Z,86.80
2018-12-08T01:31:34.533Z,87.30
2018-12-08T01:34:02.727Z,86.70
2018-12-08T01:36:30.935Z,86.30
2018-12-08T01:38:59.044Z,86.70
2018-12-08T01:41:27.145Z,86.30
2018-12-08T01:43:55.254Z,84.60
2018-12-08T01:46:23.462Z,84.00
2018-12-08T01:48:51.622Z,83.50
2018-12-08T01:51:19.830Z,82.40
2018-12-08T01:53:47.927Z,82.00
2018-12-08T01:56:16.097Z,81.70
2018-12-08T01:58:44.223Z,81.10
2018-12-08T02:01:12.363Z,80.90
2018-12-08T02:03:40.433Z,79.90
2018-12-08T02:06:08.528Z,80.20
2018-12-08T02:08:36.664Z,80.50
2018-12-08T02:11:06.878Z,81.00
2018-12-08T02:13:35.073Z,80.40
2018-12-08T02:16:03.211Z,81.10
2018-12-08T02:21:34.840Z,80.00
2018-12-08T02:24:02.945Z,80.90
2018-12-08T02:29:41.015Z,81.70
2018-12-08T02:35:11.895Z,80.30
2018-12-08T02:37:40.019Z,80.80
2018-12-08T02:40:08.597Z,81.20
2018-12-08T02:42:36.733Z,79.90
2018-12-08T02:45:04.915Z,79.20
2018-12-08T02:47:33.072Z,78.30
2018-12-08T02:50:01.281Z,77.20
2018-12-08T02:52:29.437Z,77.60
2018-12-08T02:54:57.513Z,77.70
2018-12-08T02:57:25.637Z,77.20
2018-12-08T02:59:53.716Z,77.90
2018-12-08T03:02:21.909Z,77.30
2018-12-08T03:04:50.070Z,76.90
2018-12-08T03:07:18.155Z,76.70
2018-12-08T03:09:46.251Z,76.10
2018-12-08T03:12:14.340Z,77.40
2018-12-08T03:14:42.431Z,76.00
2018-12-08T03:17:10.521Z,76.10
2018-12-08T03:19:38.631Z,76.30
2018-12-08T03:22:06.813Z,76.80
2018-12-08T03:24:34.902Z,76.60
2018-12-08T03:27:03.453Z,76.70
2018-12-08T03:29:31.530Z,76.00
2018-12-08T03:31:59.679Z,76.50
2018-12-08T03:34:27.781Z,76.60
2018-12-08T03:36:55.897Z,76.50
2018-12-08T03:39:23.997Z,75.70
2018-12-08T03:41:52.160Z,76.40
2018-12-08T03:44:20.221Z,75.90
2018-12-08T03:46:48.320Z,76.30
2018-12-08T03:49:16.396Z,76.10
2018-12-08T03:51:44.596Z,75.80
2018-12-08T03:54:12.695Z,76.10
2018-12-08T03:56:40.768Z,75.40
2018-12-08T03:59:08.856Z,76.00
2018-12-08T04:01:36.943Z,75.80
2018-12-08T04:04:05.063Z,75.00
2018-12-08T04:06:33.200Z,75.10
2018-12-08T04:09:01.288Z,76.00
2018-12-08T04:11:29.591Z,75.40
2018-12-08T04:13:57.724Z,75.30
2018-12-08T04:16:25.815Z,75.80
2018-12-08T04:18:53.884Z,75.80
2018-12-08T04:21:22.119Z,75.70
2018-12-08T04:23:50.229Z,74.80
2018-12-08T04:26:19.124Z,75.40
2018-12-08T04:28:47.214Z,74.60
2018-12-08T04:31:15.388Z,75.30
2018-12-08T04:33:43.504Z,75.50
2018-12-08T04:36:11.591Z,75.70
2018-12-08T04:38:39.683Z,75.20
2018-12-08T04:41:07.840Z,75.50
2018-12-08T04:43:35.939Z,75.70
2018-12-08T04:46:03.984Z,75.60
2018-12-08T04:48:32.063Z,75.70
2018-12-08T04:51:00.135Z,75.10
2018-12-08T04:53:28.343Z,75.70
2018-12-08T04:55:56.459Z,75.00
2018-12-08T04:58:24.635Z,75.00
2018-12-08T05:00:52.717Z,74.90
2018-12-08T05:03:20.807Z,74.90
2018-12-08T05:05:48.878Z,75.00
2018-12-08T05:08:16.986Z,74.70
2018-12-08T05:10:45.073Z,75.00
2018-12-08T05:13:13.151Z,74.70
2018-12-08T05:15:41.231Z,74.70
2018-12-08T05:18:09.367Z,73.50
2018-12-08T05:20:37.438Z,73.10
2018-12-08T05:23:05.504Z,73.30
2018-12-08T05:25:33.611Z,73.00
2018-12-08T05:28:01.765Z,72.40
2018-12-08T05:30:29.864Z,73.20
2018-12-08T05:32:58.034Z,72.60
2018-12-08T05:35:27.140Z,72.30
2018-12-08T05:37:55.303Z,71.50
2018-12-08T05:40:23.559Z,71.60
2018-12-08T05:42:51.652Z,71.20
2018-12-08T05:45:19.775Z,72.00
2018-12-08T05:47:47.931Z,71.80
2018-12-08T05:50:16.068Z,71.80
2018-12-08T05:52:44.205Z,71.20
2018-12-08T05:55:12.373Z,72.10
2018-12-08T05:57:40.448Z,71.10
2018-12-08T06:00:08.835Z,70.70
2018-12-08T06:02:36.925Z,71.50
2018-12-08T06:05:05.587Z,72.00
2018-12-08T06:07:33.688Z,72.00
2018-12-08T06:10:01.802Z,71.00
2018-12-08T06:12:30.020Z,70.50
2018-12-08T06:14:58.344Z,70.90
2018-12-08T06:17:26.482Z,70.70
2018-12-08T06:19:54.563Z,71.20
2018-12-08T06:22:22.667Z,71.10
2018-12-08T06:24:50.909Z,71.30
2018-12-08T06:27:25.047Z,71.00
2018-12-08T06:29:53.196Z,70.90
2018-12-08T06:32:21.465Z,70.60
2018-12-08T06:34:49.566Z,70.20
2018-12-08T06:40:16.803Z,70.20
2018-12-08T06:42:44.880Z,70.80
2018-12-08T06:45:13.015Z,70.20
2018-12-08T06:47:41.085Z,70.40
2018-12-08T06:50:09.195Z,70.60
2018-12-08T06:52:37.372Z,70.60
2018-12-08T06:55:05.601Z,70.50
2018-12-08T06:57:33.709Z,70.50
2018-12-08T07:00:01.953Z,72.20
2018-12-08T07:02:30.089Z,72.80
2018-12-08T07:04:58.212Z,72.90
2018-12-08T07:07:26.359Z,73.20
2018-12-08T07:14:58.799Z,74.10
2018-12-08T07:17:26.992Z,74.80
2018-12-08T07:19:55.063Z,74.80
2018-12-08T07:22:23.188Z,74.50
2018-12-08T07:24:51.329Z,75.10
2018-12-08T07:27:19.448Z,74.80
2018-12-08T07:48:24.219Z,73.20
2018-12-08T07:50:53.165Z,72.60
2018-12-08T07:56:38.024Z,72.00
2018-12-08T08:04:55.891Z,70.60
2018-12-08T08:07:24.827Z,70.70
2018-12-08T08:09:53.757Z,70.90
2018-12-08T08:12:22.795Z,71.00
2018-12-08T08:14:52.080Z,70.50
2018-12-08T08:17:21.186Z,70.20
2018-12-08T08:19:50.294Z,70.50
2018-12-08T08:22:19.213Z,69.80
2018-12-08T08:24:48.184Z,69.00
2018-12-08T08:27:17.051Z,69.20
2018-12-08T08:29:46.000Z,69.30
2018-12-08T08:32:14.907Z,68.60
2018-12-08T08:34:43.800Z,68.60
2018-12-08T08:37:12.761Z,68.50
2018-12-08T08:39:41.646Z,68.30
2018-12-08T08:42:10.619Z,68.10
2018-12-08T08:44:39.592Z,68.40
2018-12-08T08:47:08.530Z,68.30
2018-12-08T08:49:37.505Z,67.90
2018-12-08T08:52:19.020Z,68.80
2018-12-08T08:58:03.500Z,68.60
2018-12-08T09:00:32.509Z,68.80
2018-12-08T09:03:01.436Z,68.60
2018-12-08T09:05:30.489Z,68.90
2018-12-08T09:08:17.460Z,69.30
2018-12-08T09:10:50.152Z,70.20
2018-12-08T09:13:19.027Z,70.10
2018-12-08T09:15:49.830Z,70.50
2018-12-08T09:18:26.045Z,70.70
2018-12-08T09:23:55.648Z,69.80
2018-12-08T09:26:31.125Z,69.20
2018-12-08T09:29:06.415Z,68.90
2018-12-08T09:31:48.788Z,69.40
2018-12-08T09:34:19.571Z,68.90
2018-12-08T09:36:48.504Z,68.60
2018-12-08T09:39:17.426Z,68.90
2018-12-08T09:41:46.482Z,69.00
2018-12-08T09:44:15.555Z,68.00
2018-12-08T09:46:44.613Z,67.60
2018-12-08T09:49:13.532Z,68.30
2018-12-08T09:51:42.792Z,69.10
2018-12-08T09:54:11.707Z,69.00
2018-12-08T09:56:40.695Z,69.10
2018-12-08T09:59:09.581Z,68.40
2018-12-08T10:01:38.487Z,68.00
2018-12-08T10:04:07.368Z,68.00
2018-12-08T10:06:36.439Z,67.00
2018-12-08T10:09:07.732Z,67.20
2018-12-08T10:11:36.720Z,67.90
2018-12-08T10:14:06.597Z,66.90
2018-12-08T10:16:35.581Z,65.80
2018-12-08T10:19:05.421Z,65.80
2018-12-08T10:21:34.410Z,66.50
2018-12-08T10:24:03.400Z,67.00
2018-12-08T10:26:32.381Z,67.00
2018-12-08T10:29:01.324Z,66.20
2018-12-08T10:31:30.343Z,65.80
2018-12-08T10:33:59.352Z,66.00
2018-12-08T10:36:28.417Z,65.90
2018-12-08T10:38:57.401Z,65.50
2018-12-08T10:41:26.363Z,65.80
2018-12-08T10:43:55.360Z,65.10
2018-12-08T10:46:24.371Z,63.40
2018-12-08T10:48:53.622Z,64.30
2018-12-08T10:51:22.544Z,64.10
2018-12-08T10:53:53.444Z,63.40
2018-12-08T10:56:22.562Z,62.80
2018-12-08T10:58:51.506Z,63.40
2018-12-08T11:01:24.311Z,63.40
2018-12-08T11:03:53.212Z,63.80
2018-12-08T11:06:34.478Z,63.50
2018-12-08T11:09:04.782Z,62.80
2018-12-08T11:11:37.584Z,63.10
2018-12-08T11:14:19.089Z,62.80
2018-12-08T11:16:48.149Z,61.70
2018-12-08T11:19:30.516Z,61.90
2018-12-08T11:22:03.312Z,61.00
2018-12-08T11:27:15.565Z,60.70
2018-12-08T11:29:44.457Z,62.10
2018-12-08T11:32:13.372Z,61.70
2018-12-08T11:34:42.448Z,62.50
2018-12-08T11:37:11.338Z,63.30
2018-12-08T11:39:40.252Z,63.50
2018-12-08T11:42:09.517Z,64.60
2018-12-08T11:44:38.935Z,64.70
2018-12-08T11:47:07.929Z,64.30
2018-12-08T11:49:37.925Z,63.70
2018-12-08T11:52:06.930Z,63.20
2018-12-08T11:54:35.948Z,63.40
2018-12-08T11:57:05.860Z,63.20
2018-12-08T11:59:34.833Z,61.90
2018-12-08T12:02:04.056Z,62.60
2018-12-08T12:04:33.133Z,62.60
2018-12-08T12:07:02.469Z,63.80
2018-12-08T12:09:31.369Z,63.30
2018-12-08T12:12:00.328Z,63.50
2018-12-08T12:14:39.509Z,63.70
2018-12-08T12:17:08.573Z,63.30
2018-12-08T12:19:37.583Z,64.00
2018-12-08T12:22:06.481Z,64.60
2018-12-08T12:24:35.484Z,63.50
2018-12-08T12:27:04.415Z,63.80
2018-12-08T12:29:33.311Z,63.60
2018-12-08T12:32:02.801Z,63.40
2018-12-08T12:34:31.716Z,63.50
2018-12-08T12:37:00.676Z,63.40
2018-12-08T12:39:29.648Z,63.30
2018-12-08T12:41:58.585Z,63.50
2018-12-08T12:44:27.573Z,63.40
2018-12-08T12:46:56.457Z,64.40
2018-12-08T12:49:25.336Z,64.60
2018-12-08T12:51:54.329Z,64.40
2018-12-08T12:54:23.309Z,63.40
2018-12-08T12:56:52.270Z,63.20
2018-12-08T12:59:21.191Z,63.30
2018-12-08T13:01:50.098Z,62.80
2018-12-08T13:04:19.027Z,62.70
2018-12-08T13:06:47.935Z,62.70
2018-12-08T13:09:16.832Z,63.10
2018-12-08T13:11:46.615Z,63.20
2018-12-08T13:14:15.518Z,63.70
2018-12-08T13:16:44.445Z,63.60
2018-12-08T13:19:13.378Z,63.40
2018-12-08T13:21:42.556Z,63.50
2018-12-08T13:24:11.474Z,63.70
2018-12-08T13:26:40.365Z,64.10
2018-12-08T13:29:09.300Z,64.10
2018-12-08T13:31:38.204Z,64.60
2018-12-08T13:34:18.331Z,64.70
2018-12-08T13:36:47.225Z,64.80
2018-12-08T13:39:16.093Z,64.90
2018-12-08T13:41:45.001Z,65.40
2018-12-08T13:44:23.853Z,65.50
2018-12-08T13:46:52.868Z,65.70
2018-12-08T13:49:21.757Z,65.90
2018-12-08T13:51:50.692Z,66.10
2018-12-08T13:54:30.794Z,66.20
2018-12-08T13:56:59.737Z,67.00
2018-12-08T13:59:28.622Z,67.50
2018-12-08T14:01:57.503Z,68.20
2018-12-08T14:04:26.397Z,68.80
2018-12-08T14:06:55.312Z,69.70
2018-12-08T14:09:24.209Z,69.50
2018-12-08T14:11:53.124Z,69.40
2018-12-08T14:14:22.046Z,69.50
2018-12-08T14:16:50.949Z,69.80
2018-12-08T14:19:19.853Z,69.30
2018-12-08T14:21:48.745Z,69.10
2018-12-08T14:24:17.721Z,69.80
2018-12-08T14:26:46.617Z,69.80
2018-12-08T14:29:15.605Z,70.10
2018-12-08T14:31:44.823Z,70.70
2018-12-08T14:34:14.090Z,70.80
2018-12-08T14:39:50.076Z,71.00
2018-12-08T14:48:33.296Z,72.00
2018-12-08T14:51:02.179Z,72.40
2018-12-08T14:53:31.080Z,72.60
2018-12-08T14:56:00.022Z,72.50
2018-12-08T14:58:28.953Z,72.90
2018-12-08T15:00:57.860Z,72.90
2018-12-08T15:03:27.243Z,72.70
2018-12-08T15:05:56.364Z,72.20
2018-12-08T15:08:25.324Z,72.30
2018-12-08T15:10:54.221Z,72.20
2018-12-08T15:13:23.097Z,72.30
2018-12-08T15:15:51.984Z,71.70
2018-12-08T15:18:20.863Z,71.60
2018-12-08T15:20:49.766Z,71.80
2018-12-08T15:23:18.767Z,71.30
2018-12-08T15:25:47.759Z,71.20
2018-12-08T15:28:17.674Z,71.30
2018-12-08T15:30:46.757Z,71.10
2018-12-08T15:33:15.920Z,71.00
2018-12-08T15:35:45.070Z,70.80
2018-12-08T15:38:14.024Z,70.50
2018-12-08T15:40:42.936Z,71.00
2018-12-08T15:43:11.863Z,71.10
2018-12-08T15:45:40.792Z,70.60
2018-12-08T15:48:09.777Z,70.40
2018-12-08T15:50:38.824Z,71.00
2018-12-08T15:53:07.794Z,70.40
2018-12-08T15:55:36.784Z,70.70
2018-12-08T15:58:05.732Z,70.10
2018-12-08T16:00:34.916Z,69.90
2018-12-08T16:03:04.058Z,70.00
2018-12-08T16:05:33.118Z,69.70
2018-12-08T16:08:02.103Z,69.70
2018-12-08T16:10:31.016Z,69.90
2018-12-08T16:12:59.941Z,70.00
2018-12-08T16:15:28.872Z,69.80
2018-12-08T16:17:57.781Z,69.80
2018-12-08T16:20:26.730Z,69.70
2018-12-08T16:22:55.705Z,69.70
2018-12-08T16:25:24.832Z,69.50
2018-12-08T16:27:53.832Z,69.80
2018-12-08T16:30:22.778Z,69.30
2018-12-08T16:32:51.770Z,69.50
2018-12-08T16:35:20.828Z,69.40
2018-12-08T16:37:56.727Z,69.80
2018-12-08T16:40:20.700Z,70.40
2018-12-08T16:42:49.610Z,71.00
2018-12-08T16:45:18.654Z,71.10
2018-12-08T16:47:47.580Z,71.60
2018-12-08T16:50:16.601Z,72.20
2018-12-08T16:52:45.616Z,72.40
2018-12-08T16:55:14.588Z,72.60
2018-12-08T16:57:43.813Z,72.80
2018-12-08T17:00:13.108Z,72.80
2018-12-08T17:02:42.108Z,73.00
2018-12-08T17:05:11.464Z,72.90
2018-12-08T17:07:40.428Z,73.20
2018-12-08T17:10:09.566Z,73.20
2018-12-08T17:12:38.563Z,73.50
2018-12-08T17:15:07.801Z,73.80
2018-12-08T17:17:37.676Z,73.70
2018-12-08T17:20:09.216Z,73.80
2018-12-08T17:22:38.100Z,74.00
2018-12-08T17:25:07.315Z,73.90
2018-12-08T17:27:36.205Z,74.40
2018-12-08T17:30:06.143Z,74.60
2018-12-08T17:32:35.047Z,74.40
2018-12-08T17:35:04.176Z,74.40
2018-12-08T17:37:33.222Z,74.20
2018-12-08T17:40:02.116Z,74.40
2018-12-08T17:42:32.015Z,75.50
2018-12-08T17:45:00.928Z,74.60
2018-12-08T17:47:29.816Z,74.90
2018-12-08T17:49:58.711Z,75.80
2018-12-08T17:52:27.615Z,75.30
2018-12-08T17:54:56.504Z,75.30
2018-12-08T17:57:25.424Z,75.20
2018-12-08T17:59:54.491Z,75.20
2018-12-08T18:02:23.671Z,74.90
2018-12-08T18:04:52.545Z,75.50
2018-12-08T18:07:21.684Z,76.00
2018-12-08T18:09:50.700Z,76.30
2018-12-08T18:12:19.710Z,76.80
2018-12-08T18:14:48.699Z,77.40
2018-12-08T18:17:17.648Z,77.60
2018-12-08T18:19:46.574Z,78.00
2018-12-08T18:22:15.516Z,77.90
2018-12-08T18:24:44.460Z,77.80
2018-12-08T18:27:13.428Z,77.90
2018-12-08T18:29:42.416Z,78.40
2018-12-08T18:32:11.462Z,78.20
2018-12-08T18:34:40.398Z,77.90
2018-12-08T18:37:09.344Z,77.40
2018-12-08T18:39:38.272Z,77.10
2018-12-08T18:42:07.382Z,76.80
2018-12-08T18:44:36.390Z,76.50
2018-12-08T18:47:06.460Z,76.30
2018-12-08T18:49:35.388Z,76.20
2018-12-08T18:52:04.439Z,75.90
2018-12-08T18:54:33.375Z,75.70
2018-12-08T18:57:02.301Z,75.50
2018-12-08T18:59:31.252Z,75.30
2018-12-08T19:02:00.243Z,75.10
2018-12-08T19:04:29.164Z,74.70
2018-12-08T19:06:58.080Z,75.00
2018-12-08T19:09:26.973Z,75.90
2018-12-08T19:11:55.900Z,76.30
2018-12-08T19:14:24.831Z,77.40
2018-12-08T19:16:53.767Z,77.40
2018-12-08T19:19:22.645Z,77.30
2018-12-08T19:21:51.681Z,77.80
2018-12-08T19:24:20.603Z,77.40
2018-12-08T19:26:49.545Z,77.30
2018-12-08T19:29:18.548Z,77.70
2018-12-08T19:31:47.480Z,77.10
2018-12-08T19:34:16.369Z,75.90
2018-12-08T19:36:45.267Z,76.50
2018-12-08T19:39:15.208Z,76.10
2018-12-08T19:41:44.083Z,75.90
2018-12-08T19:44:13.011Z,75.50
2018-12-08T19:46:42.061Z,75.20
2018-12-08T19:49:10.985Z,74.80
2018-12-08T19:51:39.900Z,74.10
2018-12-08T19:54:08.931Z,74.00
2018-12-08T19:56:37.796Z,74.10
2018-12-08T19:59:06.659Z,74.50
2018-12-08T20:01:35.712Z,73.90
2018-12-08T20:04:04.880Z,73.80
2018-12-08T20:06:33.833Z,74.10
2018-12-08T20:09:02.890Z,73.60
2018-12-08T20:11:32.912Z,73.40
2018-12-08T20:14:01.873Z,73.00
2018-12-08T20:16:30.814Z,72.70
2018-12-08T20:18:59.904Z,73.10
2018-12-08T20:21:28.888Z,72.90
2018-12-08T20:23:57.797Z,73.40
2018-12-08T20:26:26.668Z,73.80
2018-12-08T20:28:55.556Z,75.30
2018-12-08T20:31:24.501Z,75.00
2018-12-08T20:33:53.628Z,75.60
2018-12-08T20:36:22.627Z,75.90
2018-12-08T20:38:51.560Z,75.90
2018-12-08T20:41:20.632Z,75.90
2018-12-08T20:43:49.709Z,76.20
2018-12-08T20:46:18.641Z,76.70
2018-12-08T20:48:47.547Z,76.40
2018-12-08T20:51:16.569Z,75.90
2018-12-08T20:53:45.641Z,76.40
2018-12-08T20:56:14.544Z,75.50
2018-12-08T20:58:43.473Z,75.90
2018-12-08T21:01:12.468Z,76.00
2018-12-08T21:03:41.388Z,76.00
2018-12-08T21:06:10.471Z,75.30
2018-12-08T21:08:39.436Z,75.20
2018-12-08T21:11:08.447Z,75.20
2018-12-08T21:14:05.294Z,75.60
2018-12-08T21:16:56.748Z,75.60
2018-12-08T21:19:25.782Z,76.20
2018-12-08T21:24:54.758Z,76.60
2018-12-08T21:27:37.049Z,76.80
2018-12-08T21:30:07.467Z,76.90
2018-12-08T21:32:36.410Z,76.80
2018-12-08T21:38:03.004Z,76.20
2018-12-08T21:40:31.924Z,76.60
2018-12-08T21:43:01.980Z,76.70
2018-12-08T21:45:31.009Z,77.00
2018-12-08T21:48:00.026Z,77.50
2018-12-08T21:50:29.289Z,77.60
2018-12-08T21:52:58.400Z,77.70
2018-12-08T21:55:27.273Z,78.20
2018-12-08T21:57:56.460Z,79.20
2018-12-08T22:00:25.476Z,79.70
2018-12-08T22:02:54.603Z,80.00
2018-12-08T22:05:23.618Z,81.10
2018-12-08T22:07:52.581Z,81.70
2018-12-08T22:10:21.504Z,81.90
2018-12-08T22:12:50.456Z,82.60
2018-12-08T22:15:19.336Z,82.80
2018-12-08T22:17:48.377Z,82.90
2018-12-08T22:20:17.287Z,82.80
2018-12-08T22:22:46.159Z,83.40
2018-12-08T22:25:15.108Z,83.40
2018-12-08T22:27:44.046Z,82.90
2018-12-08T22:30:13.090Z,84.00
2018-12-08T22:32:41.999Z,82.70
2018-12-08T22:35:12.156Z,82.80
2018-12-08T22:37:41.152Z,82.50
2018-12-08T22:40:10.386Z,82.20
2018-12-08T22:42:39.304Z,82.30
2018-12-08T22:45:08.265Z,82.10
2018-12-08T22:47:43.325Z,82.60
2018-12-08T22:50:30.803Z,82.70
2018-12-08T22:52:59.808Z,82.60
2018-12-08T22:55:28.755Z,82.40
2018-12-08T22:57:57.984Z,82.10
2018-12-08T23:00:46.298Z,81.90
2018-12-08T23:03:15.594Z,82.00
2018-12-08T23:05:44.526Z,82.50
2018-12-08T23:08:13.578Z,82.80
2018-12-08T23:10:42.655Z,82.50
2018-12-08T23:13:13.408Z,82.90
2018-12-08T23:15:42.365Z,82.90
2018-12-08T23:18:11.254Z,82.60
2018-12-08T23:20:40.200Z,82.70
2018-12-08T23:23:09.232Z,82.80
2018-12-08T23:25:38.143Z,82.70
2018-12-08T23:28:12.663Z,83.00
2018-12-08T23:30:41.682Z,82.80
2018-12-08T23:33:10.759Z,82.80
2018-12-08T23:35:40.376Z,82.90
2018-12-08T23:38:09.267Z,82.90
2018-12-08T23:40:38.443Z,82.80
2018-12-08T23:43:08.436Z,82.90
2018-12-08T23:45:37.304Z,83.20
2018-12-08T23:48:06.408Z,83.00
2018-12-08T23:50:35.353Z,82.50
2018-12-08T23:53:04.661Z,82.90
2018-12-08T23:55:33.740Z,82.60
2018-12-08T23:58:02.705Z,82.60
